VERC

Details ICAO VERC (IXR)
Name BIRSA MUNDA
Region India
Timezone Asia/Kolkata (UTC+5.5)
Plans Departing 14
Arriving 11
Stats Elevation 2,148 ft / 655 m (AMSL)
Location 23.314668° 85.321675°
Runways 1
Magnetic Variation 0.030° W
Sunrise 2017-12-18 00:55:31 UTC / 2017-12-18 06:25:31 Local
Sunset 2017-12-18 11:37:37 UTC / 2017-12-18 17:07:37 Local
Advertisement - Login to hide

Runways

ID Width Length Bearing (true) Bearing (mag) Surface Threshold Offset Overrun Length
13 148 ft / 45 m 8,863 ft / 2,701 m 130.35° 130.38° Asphalt 948 ft / 289 m 0 ft / 0 m
31 148 ft / 45 m 8,863 ft / 2,701 m 310.35° 310.38° Asphalt 0 ft / 0 m 0 ft / 0 m

Approach Navaids

Runway Type Ident Frequency Range Bearing (true) Bearing (mag) Slope Elevation
31 Localiser RAN 110.50 MHz 18 nm / 33 km 310.65° 310.68° - 2,148 ft / 655 m (AMSL)
31 Glidescope RAN 110.50 MHz 10 nm / 19 km 310.35° 310.38° 3.00° 2,148 ft / 655 m (AMSL)
31 DME RAN 110.50 MHz 18 nm / 33 km - - - 2,148 ft / 655 m (AMSL)

Map

Weather


0- 5 10 15 20 25 30 35+ Temperature / ° C

Clouds and Precipitation
Forecast for 2017-12-18 06:00 UTC. Updated 21 minutes ago

Ground ~20,000 ft ~40,000 ft Winds

METAR

VERC 180330Z 01006KT 2000 HZ NSC 15/03 Q1022 NOSIG

TAF

Not found

Frequencies

Tower 122.30 MHz RANCHI TWR
Warning: Do not use this data for real-world aviation or navigation. No guarantee of current accuracy is given.